sensor_id;sensor_type;location;lat;lon;timestamp;pressure;altitude;pressure_sealevel;temperature;humidity
24160;BME280;62385;41.594;23.808;2024-03-29T00:00:40;95333.59;;;8.98;68.19
24160;BME280;62385;41.594;23.808;2024-03-29T00:03:06;95378.13;;;9.10;68.72
24160;BME280;62385;41.594;23.808;2024-03-29T00:05:33;95362.25;;;9.10;69.29
24160;BME280;62385;41.594;23.808;2024-03-29T00:07:59;95376.97;;;9.37;68.91
24160;BME280;62385;41.594;23.808;2024-03-29T00:10:25;95380.94;;;9.17;68.91
24160;BME280;62385;41.594;23.808;2024-03-29T00:12:50;95364.81;;;8.78;69.19
24160;BME280;62385;41.594;23.808;2024-03-29T00:15:16;95373.50;;;8.46;69.81
24160;BME280;62385;41.594;23.808;2024-03-29T00:17:41;95363.91;;;8.45;70.15
24160;BME280;62385;41.594;23.808;2024-03-29T00:20:07;95382.56;;;8.86;69.38
24160;BME280;62385;41.594;23.808;2024-03-29T00:22:33;95390.03;;;8.40;70.77
24160;BME280;62385;41.594;23.808;2024-03-29T00:24:59;95363.31;;;8.25;70.23
24160;BME280;62385;41.594;23.808;2024-03-29T00:27:25;95381.69;;;8.69;70.52
24160;BME280;62385;41.594;23.808;2024-03-29T00:30:11;95347.91;;;8.47;70.38
24160;BME280;62385;41.594;23.808;2024-03-29T00:32:37;95380.13;;;8.42;70.06
24160;BME280;62385;41.594;23.808;2024-03-29T00:35:02;95391.75;;;8.23;71.42
24160;BME280;62385;41.594;23.808;2024-03-29T00:37:28;95364.28;;;8.16;70.94
24160;BME280;62385;41.594;23.808;2024-03-29T00:39:54;95390.28;;;7.95;71.69
24160;BME280;62385;41.594;23.808;2024-03-29T00:42:19;95372.66;;;7.70;72.00
24160;BME280;62385;41.594;23.808;2024-03-29T00:44:46;95397.91;;;7.98;72.16
24160;BME280;62385;41.594;23.808;2024-03-29T00:47:12;95396.75;;;8.01;71.64
24160;BME280;62385;41.594;23.808;2024-03-29T00:49:38;95397.19;;;8.22;70.92
24160;BME280;62385;41.594;23.808;2024-03-29T00:52:04;95379.16;;;8.17;70.83
24160;BME280;62385;41.594;23.808;2024-03-29T00:54:30;95404.94;;;8.15;71.16
24160;BME280;62385;41.594;23.808;2024-03-29T00:56:56;95413.28;;;7.51;72.31
24160;BME280;62385;41.594;23.808;2024-03-29T00:59:22;95408.28;;;7.66;73.12
24160;BME280;62385;41.594;23.808;2024-03-29T01:01:49;95383.50;;;7.67;71.78
24160;BME280;62385;41.594;23.808;2024-03-29T01:04:15;95404.50;;;7.68;72.42
24160;BME280;62385;41.594;23.808;2024-03-29T01:06:41;95400.88;;;7.26;73.64
24160;BME280;62385;41.594;23.808;2024-03-29T01:09:07;95409.75;;;7.42;73.54
24160;BME280;62385;41.594;23.808;2024-03-29T01:11:40;95396.00;;;7.82;72.13
24160;BME280;62385;41.594;23.808;2024-03-29T01:14:06;95410.75;;;7.67;72.57
24160;BME280;62385;41.594;23.808;2024-03-29T01:16:32;95394.59;;;7.45;73.44
24160;BME280;62385;41.594;23.808;2024-03-29T01:18:58;95398.19;;;7.61;73.04
24160;BME280;62385;41.594;23.808;2024-03-29T01:21:25;95398.19;;;7.95;72.33
24160;BME280;62385;41.594;23.808;2024-03-29T01:23:51;95395.38;;;7.37;72.93
24160;BME280;62385;41.594;23.808;2024-03-29T01:26:16;95404.03;;;7.29;73.40
24160;BME280;62385;41.594;23.808;2024-03-29T01:28:43;95380.06;;;7.23;73.55
24160;BME280;62385;41.594;23.808;2024-03-29T01:31:09;95410.31;;;7.54;73.06
24160;BME280;62385;41.594;23.808;2024-03-29T01:33:34;95411.03;;;7.56;72.38
24160;BME280;62385;41.594;23.808;2024-03-29T01:36:06;95404.78;;;7.39;73.26
24160;BME280;62385;41.594;23.808;2024-03-29T01:38:31;95419.34;;;7.43;73.35
24160;BME280;62385;41.594;23.808;2024-03-29T01:40:57;95422.75;;;7.18;74.34
24160;BME280;62385;41.594;23.808;2024-03-29T01:43:23;95433.16;;;7.37;73.23
24160;BME280;62385;41.594;23.808;2024-03-29T01:45:52;95432.03;;;7.22;72.97
24160;BME280;62385;41.594;23.808;2024-03-29T01:48:18;95437.94;;;7.16;73.83
24160;BME280;62385;41.594;23.808;2024-03-29T01:50:47;95435.75;;;6.67;75.52
24160;BME280;62385;41.594;23.808;2024-03-29T01:53:14;95434.22;;;7.27;74.57
24160;BME280;62385;41.594;23.808;2024-03-29T01:55:41;95400.38;;;6.87;74.06
24160;BME280;62385;41.594;23.808;2024-03-29T01:58:08;95411.72;;;6.87;74.30
24160;BME280;62385;41.594;23.808;2024-03-29T02:00:36;95400.72;;;6.57;75.09
24160;BME280;62385;41.594;23.808;2024-03-29T02:03:05;95412.47;;;6.80;74.69
24160;BME280;62385;41.594;23.808;2024-03-29T02:05:39;95429.00;;;7.17;73.72
24160;BME280;62385;41.594;23.808;2024-03-29T02:08:07;95436.94;;;7.17;74.23
24160;BME280;62385;41.594;23.808;2024-03-29T02:10:34;95459.34;;;7.49;72.77
24160;BME280;62385;41.594;23.808;2024-03-29T02:12:59;95468.09;;;7.31;73.36
24160;BME280;62385;41.594;23.808;2024-03-29T02:15:25;95461.91;;;7.40;72.79
24160;BME280;62385;41.594;23.808;2024-03-29T02:17:51;95469.16;;;7.03;73.95
24160;BME280;62385;41.594;23.808;2024-03-29T02:20:16;95465.72;;;6.93;74.70
24160;BME280;62385;41.594;23.808;2024-03-29T02:22:49;95430.69;;;6.83;74.42
24160;BME280;62385;41.594;23.808;2024-03-29T02:25:16;95452.75;;;6.82;73.95
24160;BME280;62385;41.594;23.808;2024-03-29T02:27:42;95469.06;;;6.95;74.72
24160;BME280;62385;41.594;23.808;2024-03-29T02:30:08;95445.84;;;6.99;73.14
24160;BME280;62385;41.594;23.808;2024-03-29T02:32:34;95418.69;;;7.06;72.83
24160;BME280;62385;41.594;23.808;2024-03-29T02:34:59;95470.13;;;7.37;73.04
24160;BME280;62385;41.594;23.808;2024-03-29T02:37:25;95447.84;;;6.69;74.29
24160;BME280;62385;41.594;23.808;2024-03-29T02:39:50;95465.56;;;6.77;74.70
24160;BME280;62385;41.594;23.808;2024-03-29T02:42:16;95471.78;;;6.58;75.30
24160;BME280;62385;41.594;23.808;2024-03-29T02:44:42;95440.09;;;6.40;75.07
24160;BME280;62385;41.594;23.808;2024-03-29T02:47:08;95476.09;;;6.77;74.68
24160;BME280;62385;41.594;23.808;2024-03-29T02:49:33;95477.72;;;7.05;74.69
24160;BME280;62385;41.594;23.808;2024-03-29T02:51:59;95475.38;;;6.84;74.66
24160;BME280;62385;41.594;23.808;2024-03-29T02:54:24;95475.69;;;7.17;73.65
24160;BME280;62385;41.594;23.808;2024-03-29T02:56:50;95477.41;;;7.08;74.16
24160;BME280;62385;41.594;23.808;2024-03-29T02:59:15;95478.81;;;7.12;74.35
24160;BME280;62385;41.594;23.808;2024-03-29T03:01:41;95471.50;;;7.24;74.34
24160;BME280;62385;41.594;23.808;2024-03-29T03:04:07;95465.16;;;6.99;74.05
24160;BME280;62385;41.594;23.808;2024-03-29T03:06:33;95475.78;;;7.07;74.07
24160;BME280;62385;41.594;23.808;2024-03-29T03:08:58;95488.91;;;7.17;74.41
24160;BME280;62385;41.594;23.808;2024-03-29T03:11:42;95493.66;;;7.13;74.88
24160;BME280;62385;41.594;23.808;2024-03-29T03:14:08;95490.72;;;7.16;75.10
24160;BME280;62385;41.594;23.808;2024-03-29T03:16:33;95491.72;;;7.15;74.71
24160;BME280;62385;41.594;23.808;2024-03-29T03:18:59;95495.53;;;7.03;75.02
24160;BME280;62385;41.594;23.808;2024-03-29T03:21:25;95492.28;;;6.91;75.56
24160;BME280;62385;41.594;23.808;2024-03-29T03:23:50;95504.00;;;6.79;74.77
24160;BME280;62385;41.594;23.808;2024-03-29T03:26:16;95502.84;;;6.64;74.99
24160;BME280;62385;41.594;23.808;2024-03-29T03:28:41;95511.22;;;6.13;76.09
24160;BME280;62385;41.594;23.808;2024-03-29T03:31:07;95497.69;;;5.79;77.20
24160;BME280;62385;41.594;23.808;2024-03-29T03:33:32;95522.63;;;5.94;77.17
24160;BME280;62385;41.594;23.808;2024-03-29T03:35:58;95512.94;;;5.56;77.93
24160;BME280;62385;41.594;23.808;2024-03-29T03:38:23;95513.06;;;5.55;78.57
24160;BME280;62385;41.594;23.808;2024-03-29T03:40:49;95508.00;;;6.19;76.33
24160;BME280;62385;41.594;23.808;2024-03-29T03:43:15;95509.88;;;5.99;76.97
24160;BME280;62385;41.594;23.808;2024-03-29T03:45:41;95510.31;;;6.41;75.25
24160;BME280;62385;41.594;23.808;2024-03-29T03:48:08;95502.38;;;6.05;76.60
24160;BME280;62385;41.594;23.808;2024-03-29T03:50:35;95511.28;;;6.40;75.59
24160;BME280;62385;41.594;23.808;2024-03-29T03:53:01;95518.91;;;5.78;76.98
24160;BME280;62385;41.594;23.808;2024-03-29T03:55:26;95511.50;;;6.10;76.25
24160;BME280;62385;41.594;23.808;2024-03-29T03:57:53;95517.38;;;5.94;76.53
24160;BME280;62385;41.594;23.808;2024-03-29T04:00:19;95505.88;;;5.95;76.67
24160;BME280;62385;41.594;23.808;2024-03-29T04:02:49;95535.88;;;6.31;75.55
24160;BME280;62385;41.594;23.808;2024-03-29T04:05:19;95522.59;;;6.14;76.14
24160;BME280;62385;41.594;23.808;2024-03-29T04:07:45;95551.44;;;6.15;76.29
24160;BME280;62385;41.594;23.808;2024-03-29T04:10:10;95552.41;;;6.24;76.24
24160;BME280;62385;41.594;23.808;2024-03-29T04:12:36;95564.09;;;6.02;76.41
24160;BME280;62385;41.594;23.808;2024-03-29T04:15:02;95560.91;;;6.08;77.53
24160;BME280;62385;41.594;23.808;2024-03-29T04:17:29;95570.78;;;6.43;75.50
24160;BME280;62385;41.594;23.808;2024-03-29T04:19:56;95553.50;;;6.21;75.98
24160;BME280;62385;41.594;23.808;2024-03-29T04:22:22;95582.59;;;6.39;76.40
24160;BME280;62385;41.594;23.808;2024-03-29T04:24:48;95584.38;;;6.48;75.10
24160;BME280;62385;41.594;23.808;2024-03-29T04:27:14;95588.16;;;6.36;76.06
24160;BME280;62385;41.594;23.808;2024-03-29T04:29:39;95570.56;;;6.27;76.25
24160;BME280;62385;41.594;23.808;2024-03-29T04:32:05;95585.63;;;6.54;75.78
24160;BME280;62385;41.594;23.808;2024-03-29T04:34:31;95587.56;;;6.42;76.13
24160;BME280;62385;41.594;23.808;2024-03-29T04:36:56;95580.78;;;6.39;76.79
24160;BME280;62385;41.594;23.808;2024-03-29T04:39:22;95602.50;;;5.66;77.85
24160;BME280;62385;41.594;23.808;2024-03-29T04:41:48;95599.16;;;5.64;77.50
24160;BME280;62385;41.594;23.808;2024-03-29T04:44:13;95603.59;;;5.73;77.66
24160;BME280;62385;41.594;23.808;2024-03-29T04:46:49;95599.84;;;5.85;77.65
24160;BME280;62385;41.594;23.808;2024-03-29T04:49:14;95607.34;;;6.28;77.05
24160;BME280;62385;41.594;23.808;2024-03-29T04:51:43;95584.41;;;6.75;76.17
24160;BME280;62385;41.594;23.808;2024-03-29T04:54:08;95599.59;;;7.01;74.73
24160;BME280;62385;41.594;23.808;2024-03-29T04:56:34;95605.41;;;7.04;74.71
24160;BME280;62385;41.594;23.808;2024-03-29T04:59:02;95626.03;;;6.91;75.52
24160;BME280;62385;41.594;23.808;2024-03-29T05:01:28;95625.03;;;6.92;75.36
24160;BME280;62385;41.594;23.808;2024-03-29T05:03:53;95630.31;;;6.92;75.32
24160;BME280;62385;41.594;23.808;2024-03-29T05:06:19;95623.69;;;7.15;75.60
24160;BME280;62385;41.594;23.808;2024-03-29T05:08:44;95619.84;;;7.37;75.60
24160;BME280;62385;41.594;23.808;2024-03-29T05:11:10;95622.22;;;7.75;74.61
24160;BME280;62385;41.594;23.808;2024-03-29T05:13:39;95627.28;;;7.69;74.12
24160;BME280;62385;41.594;23.808;2024-03-29T05:16:05;95646.78;;;7.85;74.15
24160;BME280;62385;41.594;23.808;2024-03-29T05:18:31;95650.75;;;7.72;74.59
24160;BME280;62385;41.594;23.808;2024-03-29T05:20:56;95659.53;;;7.90;74.49
24160;BME280;62385;41.594;23.808;2024-03-29T05:23:22;95662.03;;;7.74;75.57
24160;BME280;62385;41.594;23.808;2024-03-29T05:25:47;95648.13;;;7.89;75.45
24160;BME280;62385;41.594;23.808;2024-03-29T05:28:14;95654.09;;;7.92;74.57
24160;BME280;62385;41.594;23.808;2024-03-29T05:30:40;95661.44;;;7.98;74.92
24160;BME280;62385;41.594;23.808;2024-03-29T05:33:06;95667.38;;;7.82;75.89
24160;BME280;62385;41.594;23.808;2024-03-29T05:35:32;95665.50;;;7.92;74.54
24160;BME280;62385;41.594;23.808;2024-03-29T05:37:58;95680.88;;;7.79;75.67
24160;BME280;62385;41.594;23.808;2024-03-29T05:40:24;95674.66;;;7.70;75.97
24160;BME280;62385;41.594;23.808;2024-03-29T05:42:53;95687.44;;;7.75;75.82
24160;BME280;62385;41.594;23.808;2024-03-29T05:47:49;95677.13;;;8.17;74.66
24160;BME280;62385;41.594;23.808;2024-03-29T05:50:15;95687.59;;;8.36;74.46
24160;BME280;62385;41.594;23.808;2024-03-29T05:52:41;95681.09;;;8.30;74.29
24160;BME280;62385;41.594;23.808;2024-03-29T05:55:06;95667.78;;;8.40;74.45
24160;BME280;62385;41.594;23.808;2024-03-29T05:57:33;95658.47;;;8.54;73.69
24160;BME280;62385;41.594;23.808;2024-03-29T05:59:59;95655.63;;;8.73;73.13
24160;BME280;62385;41.594;23.808;2024-03-29T06:02:25;95661.91;;;8.98;72.29
24160;BME280;62385;41.594;23.808;2024-03-29T06:04:51;95667.31;;;9.14;71.88
24160;BME280;62385;41.594;23.808;2024-03-29T06:07:16;95667.50;;;8.95;71.75
24160;BME280;62385;41.594;23.808;2024-03-29T06:09:42;95668.56;;;9.02;72.32
24160;BME280;62385;41.594;23.808;2024-03-29T06:12:07;95670.28;;;9.11;71.65
24160;BME280;62385;41.594;23.808;2024-03-29T06:14:36;95659.19;;;9.15;71.84
24160;BME280;62385;41.594;23.808;2024-03-29T06:17:20;95669.38;;;9.36;71.25
24160;BME280;62385;41.594;23.808;2024-03-29T06:19:54;95669.09;;;9.39;71.07
24160;BME280;62385;41.594;23.808;2024-03-29T06:22:26;95662.97;;;9.47;70.65
24160;BME280;62385;41.594;23.808;2024-03-29T06:24:56;95662.28;;;9.45;71.66
24160;BME280;62385;41.594;23.808;2024-03-29T06:27:25;95671.28;;;9.52;70.91
24160;BME280;62385;41.594;23.808;2024-03-29T06:29:51;95675.81;;;9.67;69.80
24160;BME280;62385;41.594;23.808;2024-03-29T06:32:16;95684.31;;;9.45;70.25
24160;BME280;62385;41.594;23.808;2024-03-29T06:34:46;95680.88;;;9.53;70.16
24160;BME280;62385;41.594;23.808;2024-03-29T06:37:12;95681.09;;;9.59;69.82
24160;BME280;62385;41.594;23.808;2024-03-29T06:39:38;95660.41;;;9.71;68.95
24160;BME280;62385;41.594;23.808;2024-03-29T06:42:03;95686.50;;;10.00;67.88
24160;BME280;62385;41.594;23.808;2024-03-29T06:44:32;95690.75;;;10.35;65.89
24160;BME280;62385;41.594;23.808;2024-03-29T06:46:57;95670.16;;;10.21;66.73
24160;BME280;62385;41.594;23.808;2024-03-29T06:49:23;95682.25;;;10.23;65.32
24160;BME280;62385;41.594;23.808;2024-03-29T06:51:48;95660.41;;;10.37;64.88
24160;BME280;62385;41.594;23.808;2024-03-29T06:54:14;95692.44;;;10.60;63.66
24160;BME280;62385;41.594;23.808;2024-03-29T06:56:39;95683.44;;;10.85;62.31
24160;BME280;62385;41.594;23.808;2024-03-29T06:59:05;95697.53;;;10.94;61.40
24160;BME280;62385;41.594;23.808;2024-03-29T07:01:30;95700.16;;;11.18;59.49
24160;BME280;62385;41.594;23.808;2024-03-29T07:03:56;95694.97;;;11.41;57.60
24160;BME280;62385;41.594;23.808;2024-03-29T07:06:22;95649.84;;;11.25;57.74
24160;BME280;62385;41.594;23.808;2024-03-29T07:08:48;95671.31;;;11.62;57.42
24160;BME280;62385;41.594;23.808;2024-03-29T07:11:13;95656.00;;;11.64;58.11
24160;BME280;62385;41.594;23.808;2024-03-29T07:13:39;95676.03;;;11.91;57.34
24160;BME280;62385;41.594;23.808;2024-03-29T07:16:05;95643.81;;;11.78;56.96
24160;BME280;62385;41.594;23.808;2024-03-29T07:18:32;95689.19;;;12.15;56.50
24160;BME280;62385;41.594;23.808;2024-03-29T07:20:57;95685.25;;;12.34;56.70
24160;BME280;62385;41.594;23.808;2024-03-29T07:23:23;95686.63;;;12.22;57.33
24160;BME280;62385;41.594;23.808;2024-03-29T07:25:59;95678.00;;;12.42;56.47
24160;BME280;62385;41.594;23.808;2024-03-29T07:28:26;95688.59;;;12.50;57.36
24160;BME280;62385;41.594;23.808;2024-03-29T07:30:51;95680.59;;;12.59;57.52
24160;BME280;62385;41.594;23.808;2024-03-29T07:33:19;95688.34;;;12.45;57.87
24160;BME280;62385;41.594;23.808;2024-03-29T07:35:47;95685.06;;;12.58;58.28
24160;BME280;62385;41.594;23.808;2024-03-29T07:38:13;95684.47;;;12.48;58.52
24160;BME280;62385;41.594;23.808;2024-03-29T07:40:41;95691.34;;;12.65;58.63
24160;BME280;62385;41.594;23.808;2024-03-29T07:43:06;95679.19;;;12.85;56.92
24160;BME280;62385;41.594;23.808;2024-03-29T07:45:32;95684.53;;;13.23;55.90
24160;BME280;62385;41.594;23.808;2024-03-29T07:47:57;95683.31;;;13.25;55.84
24160;BME280;62385;41.594;23.808;2024-03-29T07:50:23;95693.75;;;13.64;56.74
24160;BME280;62385;41.594;23.808;2024-03-29T07:52:50;95693.44;;;13.30;56.45
24160;BME280;62385;41.594;23.808;2024-03-29T07:55:16;95690.25;;;13.49;56.81
24160;BME280;62385;41.594;23.808;2024-03-29T07:57:41;95691.88;;;13.50;55.17
24160;BME280;62385;41.594;23.808;2024-03-29T08:00:07;95674.44;;;13.62;54.91
24160;BME280;62385;41.594;23.808;2024-03-29T08:02:33;95695.75;;;13.77;55.29
24160;BME280;62385;41.594;23.808;2024-03-29T08:04:59;95686.56;;;13.50;55.01
24160;BME280;62385;41.594;23.808;2024-03-29T08:07:24;95689.22;;;13.50;55.95
24160;BME280;62385;41.594;23.808;2024-03-29T08:09:50;95685.28;;;13.09;57.71
24160;BME280;62385;41.594;23.808;2024-03-29T08:12:16;95694.00;;;13.55;56.88
24160;BME280;62385;41.594;23.808;2024-03-29T08:14:42;95693.09;;;13.77;56.63
24160;BME280;62385;41.594;23.808;2024-03-29T08:17:08;95695.75;;;13.77;56.11
24160;BME280;62385;41.594;23.808;2024-03-29T08:19:40;95689.50;;;13.84;56.48
24160;BME280;62385;41.594;23.808;2024-03-29T08:22:07;95681.31;;;13.86;56.47
24160;BME280;62385;41.594;23.808;2024-03-29T08:24:36;95675.41;;;13.91;56.23
24160;BME280;62385;41.594;23.808;2024-03-29T08:27:02;95672.81;;;13.97;55.72
24160;BME280;62385;41.594;23.808;2024-03-29T08:29:28;95679.53;;;14.29;53.57
24160;BME280;62385;41.594;23.808;2024-03-29T08:31:53;95676.50;;;14.47;53.70
24160;BME280;62385;41.594;23.808;2024-03-29T08:34:19;95665.84;;;14.74;53.59
24160;BME280;62385;41.594;23.808;2024-03-29T08:36:44;95641.00;;;14.74;52.89
24160;BME280;62385;41.594;23.808;2024-03-29T08:39:10;95651.06;;;15.00;51.36
24160;BME280;62385;41.594;23.808;2024-03-29T08:41:37;95645.69;;;14.72;52.38
24160;BME280;62385;41.594;23.808;2024-03-29T08:44:03;95645.56;;;15.08;50.54
24160;BME280;62385;41.594;23.808;2024-03-29T08:46:28;95643.25;;;15.26;49.38
24160;BME280;62385;41.594;23.808;2024-03-29T08:48:54;95651.25;;;15.26;50.82
24160;BME280;62385;41.594;23.808;2024-03-29T08:51:23;95646.19;;;15.38;49.71
24160;BME280;62385;41.594;23.808;2024-03-29T08:53:49;95643.38;;;15.18;50.04
24160;BME280;62385;41.594;23.808;2024-03-29T08:56:15;95637.69;;;15.00;50.20
24160;BME280;62385;41.594;23.808;2024-03-29T08:58:41;95631.19;;;15.09;49.61
24160;BME280;62385;41.594;23.808;2024-03-29T09:01:07;95637.38;;;15.09;50.99
24160;BME280;62385;41.594;23.808;2024-03-29T09:03:32;95630.25;;;14.95;51.36
24160;BME280;62385;41.594;23.808;2024-03-29T09:05:58;95621.13;;;15.45;48.69
24160;BME280;62385;41.594;23.808;2024-03-29T09:08:24;95618.88;;;15.49;51.06
24160;BME280;62385;41.594;23.808;2024-03-29T09:10:49;95605.72;;;15.47;48.20
24160;BME280;62385;41.594;23.808;2024-03-29T09:13:15;95607.03;;;16.05;46.11
24160;BME280;62385;41.594;23.808;2024-03-29T09:15:40;95615.13;;;16.38;47.00
24160;BME280;62385;41.594;23.808;2024-03-29T09:18:06;95585.13;;;15.89;48.36
24160;BME280;62385;41.594;23.808;2024-03-29T09:20:58;95607.44;;;16.15;47.92
24160;BME280;62385;41.594;23.808;2024-03-29T09:23:28;95599.31;;;16.70;46.37
24160;BME280;62385;41.594;23.808;2024-03-29T09:25:55;95591.88;;;17.11;44.28
24160;BME280;62385;41.594;23.808;2024-03-29T09:28:25;95585.91;;;17.09;44.39
24160;BME280;62385;41.594;23.808;2024-03-29T09:30:57;95602.56;;;17.37;44.39
24160;BME280;62385;41.594;23.808;2024-03-29T09:33:24;95584.03;;;17.03;45.29
24160;BME280;62385;41.594;23.808;2024-03-29T09:35:49;95596.44;;;16.97;47.23
24160;BME280;62385;41.594;23.808;2024-03-29T09:38:16;95591.47;;;17.07;46.98
24160;BME280;62385;41.594;23.808;2024-03-29T09:40:41;95587.91;;;17.46;46.38
24160;BME280;62385;41.594;23.808;2024-03-29T09:43:08;95575.09;;;17.35;45.59
24160;BME280;62385;41.594;23.808;2024-03-29T09:45:35;95581.13;;;17.11;45.62
24160;BME280;62385;41.594;23.808;2024-03-29T09:48:07;95577.22;;;17.27;44.81
24160;BME280;62385;41.594;23.808;2024-03-29T09:50:36;95565.00;;;17.95;42.62
24160;BME280;62385;41.594;23.808;2024-03-29T09:53:04;95559.31;;;18.16;44.06
24160;BME280;62385;41.594;23.808;2024-03-29T09:55:30;95551.00;;;18.24;41.90
24160;BME280;62385;41.594;23.808;2024-03-29T09:57:57;95551.06;;;18.11;42.59
24160;BME280;62385;41.594;23.808;2024-03-29T10:00:23;95560.88;;;18.30;41.03
24160;BME280;62385;41.594;23.808;2024-03-29T10:02:49;95556.84;;;18.46;40.09
24160;BME280;62385;41.594;23.808;2024-03-29T10:05:15;95550.91;;;18.69;39.70
24160;BME280;62385;41.594;23.808;2024-03-29T10:07:42;95548.31;;;18.80;38.63
24160;BME280;62385;41.594;23.808;2024-03-29T10:10:10;95549.88;;;18.70;34.51
24160;BME280;62385;41.594;23.808;2024-03-29T10:12:36;95538.75;;;18.66;35.11
24160;BME280;62385;41.594;23.808;2024-03-29T10:15:03;95520.06;;;18.47;35.80
24160;BME280;62385;41.594;23.808;2024-03-29T10:17:36;95529.41;;;19.30;36.44
24160;BME280;62385;41.594;23.808;2024-03-29T10:20:05;95542.78;;;19.00;37.57
24160;BME280;62385;41.594;23.808;2024-03-29T10:22:41;95535.31;;;19.02;34.63
24160;BME280;62385;41.594;23.808;2024-03-29T10:25:07;95536.75;;;19.05;36.33
24160;BME280;62385;41.594;23.808;2024-03-29T10:27:32;95527.44;;;19.25;34.17
24160;BME280;62385;41.594;23.808;2024-03-29T10:29:59;95530.41;;;19.35;35.70
24160;BME280;62385;41.594;23.808;2024-03-29T10:32:26;95523.75;;;19.20;35.43
24160;BME280;62385;41.594;23.808;2024-03-29T10:35:10;95518.00;;;19.16;33.78
24160;BME280;62385;41.594;23.808;2024-03-29T10:37:36;95517.75;;;19.18;34.22
24160;BME280;62385;41.594;23.808;2024-03-29T10:40:09;95499.91;;;19.42;35.80
24160;BME280;62385;41.594;23.808;2024-03-29T10:42:39;95508.44;;;19.75;36.45
24160;BME280;62385;41.594;23.808;2024-03-29T10:45:06;95510.56;;;19.85;36.29
24160;BME280;62385;41.594;23.808;2024-03-29T10:47:33;95511.31;;;19.92;37.57
24160;BME280;62385;41.594;23.808;2024-03-29T10:49:59;95515.31;;;19.71;35.31
24160;BME280;62385;41.594;23.808;2024-03-29T10:52:26;95507.00;;;19.72;34.58
24160;BME280;62385;41.594;23.808;2024-03-29T10:54:52;95514.28;;;20.02;34.06
24160;BME280;62385;41.594;23.808;2024-03-29T10:57:26;95493.41;;;19.97;34.23
24160;BME280;62385;41.594;23.808;2024-03-29T11:00:17;95504.59;;;20.12;33.23
24160;BME280;62385;41.594;23.808;2024-03-29T11:05:33;95498.41;;;20.53;32.60
24160;BME280;62385;41.594;23.808;2024-03-29T11:08:01;95492.19;;;20.11;32.77
24160;BME280;62385;41.594;23.808;2024-03-29T11:10:47;95485.16;;;20.22;34.69
24160;BME280;62385;41.594;23.808;2024-03-29T11:16:01;95490.22;;;20.95;35.18
24160;BME280;62385;41.594;23.808;2024-03-29T11:18:27;95490.91;;;20.55;31.53
24160;BME280;62385;41.594;23.808;2024-03-29T11:20:55;95483.69;;;20.38;30.00
24160;BME280;62385;41.594;23.808;2024-03-29T11:23:22;95482.66;;;20.50;30.76
24160;BME280;62385;41.594;23.808;2024-03-29T11:25:50;95485.63;;;20.72;31.81
24160;BME280;62385;41.594;23.808;2024-03-29T11:28:36;95481.28;;;20.48;29.94
24160;BME280;62385;41.594;23.808;2024-03-29T11:31:07;95466.47;;;20.50;30.08
24160;BME280;62385;41.594;23.808;2024-03-29T11:33:33;95471.91;;;20.73;30.20
24160;BME280;62385;41.594;23.808;2024-03-29T11:36:14;95470.84;;;20.63;29.05
24160;BME280;62385;41.594;23.808;2024-03-29T11:38:42;95467.31;;;21.09;31.50
24160;BME280;62385;41.594;23.808;2024-03-29T11:41:15;95456.06;;;22.03;30.26
24160;BME280;62385;41.594;23.808;2024-03-29T11:43:42;95445.50;;;20.87;29.05
24160;BME280;62385;41.594;23.808;2024-03-29T11:46:18;95456.53;;;20.97;28.14
24160;BME280;62385;41.594;23.808;2024-03-29T11:48:44;95451.72;;;20.88;29.07
24160;BME280;62385;41.594;23.808;2024-03-29T11:51:13;95450.78;;;21.69;30.87
24160;BME280;62385;41.594;23.808;2024-03-29T11:53:44;95447.94;;;22.32;32.56
24160;BME280;62385;41.594;23.808;2024-03-29T11:56:10;95440.69;;;22.21;29.02
24160;BME280;62385;41.594;23.808;2024-03-29T11:58:37;95439.72;;;22.27;31.86
24160;BME280;62385;41.594;23.808;2024-03-29T12:01:04;95440.56;;;22.44;29.57
24160;BME280;62385;41.594;23.808;2024-03-29T12:03:31;95435.88;;;22.23;29.44
24160;BME280;62385;41.594;23.808;2024-03-29T12:05:58;95440.31;;;21.72;29.56
24160;BME280;62385;41.594;23.808;2024-03-29T12:08:34;95432.91;;;22.24;29.91
24160;BME280;62385;41.594;23.808;2024-03-29T12:11:01;95428.31;;;22.41;29.22
24160;BME280;62385;41.594;23.808;2024-03-29T12:13:27;95434.25;;;21.65;28.97
24160;BME280;62385;41.594;23.808;2024-03-29T12:15:52;95428.22;;;21.91;27.92
24160;BME280;62385;41.594;23.808;2024-03-29T12:18:23;95434.38;;;21.98;28.14
24160;BME280;62385;41.594;23.808;2024-03-29T12:20:50;95425.19;;;21.88;27.11
24160;BME280;62385;41.594;23.808;2024-03-29T12:23:17;95432.03;;;22.52;29.15
24160;BME280;62385;41.594;23.808;2024-03-29T12:25:43;95431.44;;;22.67;29.49
24160;BME280;62385;41.594;23.808;2024-03-29T12:28:13;95414.28;;;22.94;30.74
24160;BME280;62385;41.594;23.808;2024-03-29T12:30:47;95416.34;;;22.87;29.33
24160;BME280;62385;41.594;23.808;2024-03-29T12:33:17;95424.34;;;22.77;29.88
24160;BME280;62385;41.594;23.808;2024-03-29T12:35:52;95420.81;;;22.43;30.68
24160;BME280;62385;41.594;23.808;2024-03-29T12:38:22;95411.59;;;22.61;31.10
24160;BME280;62385;41.594;23.808;2024-03-29T12:40:49;95405.44;;;22.49;28.73
24160;BME280;62385;41.594;23.808;2024-03-29T12:43:22;95416.13;;;22.22;28.99
24160;BME280;62385;41.594;23.808;2024-03-29T12:45:48;95403.09;;;23.08;31.17
24160;BME280;62385;41.594;23.808;2024-03-29T12:48:20;95410.81;;;23.37;30.25
24160;BME280;62385;41.594;23.808;2024-03-29T12:50:47;95409.88;;;23.49;30.46
24160;BME280;62385;41.594;23.808;2024-03-29T12:53:13;95407.81;;;22.95;31.45
24160;BME280;62385;41.594;23.808;2024-03-29T12:55:40;95408.16;;;23.21;31.21
24160;BME280;62385;41.594;23.808;2024-03-29T12:58:09;95397.09;;;23.44;30.74
24160;BME280;62385;41.594;23.808;2024-03-29T13:00:40;95410.25;;;23.35;30.25
24160;BME280;62385;41.594;23.808;2024-03-29T13:03:06;95364.25;;;23.19;30.52